Flight Track Log - Related Links

Times and Time Zones

All times are in EDT time to prevent confusion due to time zone crossing. See the SEJ1275 flight status page for this flight to view local times or setup timezone preferences in your user account.

Time Position Orientation Groundspeed Altitude Reporting Facility
EDT Latitude Longitude Course Direction KTS MPH feet Rate Location/Type
Thu 04:35:00 AM 16.4867 78.7520 158° South  Level Estimated
Thu 04:36:00 AM 16.4170 78.7810 158° South  Level Estimated
Thu 04:37:00 AM 16.3472 78.8100 158° South  Level Estimated
Thu 04:38:00 AM 16.2774 78.8390 158° South  Level Estimated
Thu 04:39:00 AM 16.2076 78.8680 158° South  Level Estimated
Thu 04:40:00 AM 16.1378 78.8970 158° South  Level Estimated
Thu 04:41:00 AM 16.0680 78.9259 158° South  Level Estimated
Thu 04:42:00 AM 15.9982 78.9549 158° South  Level Estimated
Thu 04:43:00 AM 15.9284 78.9838 158° South  Level Estimated
Thu 04:44:00 AM 15.8586 79.0126 158° South  Level Estimated
Thu 04:45:00 AM 15.7888 79.0415 158° South  Level Estimated
Thu 04:46:00 AM 15.7190 79.0704 158° South  Level Estimated
Thu 04:47:00 AM 15.6492 79.0992 158° South  Level Estimated
Thu 04:48:00 AM 15.5793 79.1280 158° South  Level Estimated
Thu 04:49:00 AM 15.5095 79.1568 158° South  Level Estimated
Thu 04:50:00 AM 15.4397 79.1855 158° South  Level Estimated
Thu 04:51:00 AM 15.3698 79.2143 158° South  Level Estimated
Thu 04:52:00 AM 15.3000 79.2430 158° South  Level Estimated
Thu 04:53:00 AM 15.2302 79.2717 158° South  Level Estimated
Thu 04:54:00 AM 15.1603 79.3004 158° South  Level Estimated
Thu 04:55:00 AM 15.0905 79.3291 158° South  Level Estimated
Thu 04:56:00 AM 15.0206 79.3577 158° South  Level Estimated
Thu 04:57:00 AM 14.9508 79.3864 158° South  Level Estimated
Thu 04:58:00 AM 14.8809 79.4150 158° South  Level Estimated
Thu 04:59:00 AM 14.8110 79.4436 158° South  Level Estimated
Thu 05:00:00 AM 14.7412 79.4722 158° South  Level Estimated
Thu 05:01:00 AM 14.6713 79.5007 158° South  Level Estimated
Thu 05:02:00 AM 14.6014 79.5293 158° South  Level Estimated
Thu 05:03:00 AM 14.5358 79.5560 158° South  Level Estimated
Thu 05:04:00 AM 14.4703 79.5828 158° South  Level Estimated
Thu 05:05:00 AM 14.4047 79.6095 158° South  Level Estimated
Thu 05:06:00 AM 14.3391 79.6362 158° South  Level Estimated
Thu 05:07:00 AM 14.2735 79.6629 158° South  Level Estimated
Thu 05:08:00 AM 14.2079 79.6896 158° South  Level Estimated
Thu 05:09:00 AM 14.1423 79.7163 158° South  Level Estimated
Thu 05:10:00 AM 14.0767 79.7430 158° South  Level Estimated
Thu 05:11:00 AM 14.0111 79.7696 158° South  Level Estimated
Thu 05:12:00 AM 13.9455 79.7962 158° South  Level Estimated
Thu 05:13:00 AM 13.8799 79.8229 159° South  Level Estimated
Thu 05:14:00 AM 13.8143 79.8495 159° South  Level Estimated
Thu 05:15:00 AM 13.7487 79.8760 159° South  Level Estimated
Thu 05:16:00 AM 13.6831 79.9026 159° South  Level Estimated
Thu 05:17:00 AM 13.6175 79.9292 159° South  Level Estimated
Thu 05:18:00 AM 13.5519 79.9557 159° South  Level Estimated
Thu 05:19:00 AM 13.4862 79.9822 159° South  Level Estimated
Thu 05:20:00 AM 13.4206 80.0087 159° South  Level Estimated
Thu 05:21:00 AM 13.3550 80.0352 159° South  Level Estimated
Thu 05:22:00 AM 13.2893 80.0617 159° South  Level Estimated
Thu 05:23:00 AM 13.2237 80.0882 159° South  Level Estimated
Thu 05:24:00 AM 13.1581 80.1146 159° South  Level Estimated
Thu 05:25:00 AM 13.0924 80.1411 159° South  Level Estimated
Thu 05:26:00 AM 13.0268 80.1675 159° South  Level Estimated
Thu 05:27:00 AM 12.9944 80.1805 159° South  Level Estimated
Thu 05:28:00 AM 12.9944 80.1805 North  Level Estimated
Thu 05:29:00 AM 12.9944 80.1805 North  Level Estimated
Thu 05:30:00 AM 12.9944 80.1805 North  Level Estimated
Thu 05:31:00 AM 12.9944 80.1805 North  Level Estimated
Thu 05:32:00 AM 12.9944 80.1805 North  Level Estimated
Thu 05:33:00 AM 12.9944 80.1805 North  Level Estimated
Thu 05:34:00 AM 12.9944 80.1805 North  Level Estimated
Thu 05:35:00 AM 12.9944 80.1805 North  Level Estimated
Thu 05:36:00 AM 12.9944 80.1805 North  Level Estimated
Thu 05:37:00 AM 12.9944 80.1805 North  Level Estimated
Thu 05:38:00 AM 12.9944 80.1805 North  Level Estimated

Login

Don't have an account? Register now (free) for customized features, flight alerts, and more!